createdAt,value
2018-07-03T00:01:38.430Z,99980.00
2018-07-03T00:04:15.668Z,99975.00
2018-07-03T00:07:17.591Z,99977.00
2018-07-03T00:09:48.378Z,99979.00
2018-07-03T00:12:19.272Z,99979.00
2018-07-03T00:18:03.434Z,99972.00
2018-07-03T00:20:33.872Z,99973.00
2018-07-03T00:23:13.208Z,99975.00
2018-07-03T00:25:47.156Z,99971.00
2018-07-03T00:28:17.569Z,99972.00
2018-07-03T00:30:47.936Z,99974.00
2018-07-03T00:33:36.323Z,99968.00
2018-07-03T00:36:06.631Z,99967.00
2018-07-03T00:38:37.181Z,99967.00
2018-07-03T00:41:07.795Z,99962.00
2018-07-03T00:43:38.146Z,99964.00
2018-07-03T00:46:08.393Z,99966.00
2018-07-03T00:48:43.416Z,99966.00
2018-07-03T00:51:17.481Z,99968.00
2018-07-03T00:53:50.879Z,99966.00
2018-07-03T00:56:21.051Z,99970.00
2018-07-03T00:59:12.105Z,99978.00
2018-07-03T01:01:42.740Z,99973.00
2018-07-03T01:04:13.018Z,99967.00
2018-07-03T01:06:43.690Z,99969.00
2018-07-03T01:09:14.401Z,99970.00
2018-07-03T01:11:52.081Z,99973.00
2018-07-03T01:14:43.329Z,99972.00
2018-07-03T01:17:13.557Z,99965.00
2018-07-03T01:19:44.407Z,99962.00
2018-07-03T01:22:39.861Z,99956.00
2018-07-03T01:25:10.587Z,99956.00
2018-07-03T01:27:41.988Z,99962.00
2018-07-03T01:30:13.339Z,99958.00
2018-07-03T01:32:43.758Z,99956.00
2018-07-03T01:35:18.809Z,99961.00
2018-07-03T01:37:57.318Z,99966.00
2018-07-03T01:40:42.968Z,99960.00
2018-07-03T01:45:58.803Z,99969.00
2018-07-03T01:48:28.991Z,99964.00
2018-07-03T01:50:59.095Z,99957.00
2018-07-03T01:53:29.740Z,99957.00
2018-07-03T01:55:59.888Z,99957.00
2018-07-03T01:58:43.635Z,99958.00
2018-07-03T02:03:59.742Z,99951.00
2018-07-03T02:06:29.920Z,99945.00
2018-07-03T02:09:00.633Z,99947.00
2018-07-03T02:11:30.865Z,99954.00
2018-07-03T02:14:15.892Z,99960.00
2018-07-03T02:16:46.497Z,99957.00
2018-07-03T02:19:16.935Z,99952.00
2018-07-03T02:21:47.199Z,99955.00
2018-07-03T02:24:35.348Z,99959.00
2018-07-03T02:27:14.254Z,99956.00
2018-07-03T02:29:45.042Z,99952.00
2018-07-03T02:32:15.518Z,99950.00
2018-07-03T02:34:45.794Z,99955.00
2018-07-03T02:37:22.327Z,99958.00
2018-07-03T02:39:52.935Z,99952.00
2018-07-03T02:42:23.154Z,99949.00
2018-07-03T02:44:55.851Z,99957.00
2018-07-03T02:47:26.528Z,99956.00
2018-07-03T02:49:56.920Z,99962.00
2018-07-03T02:52:27.207Z,99962.00
2018-07-03T02:54:57.277Z,99966.00
2018-07-03T02:57:27.453Z,99963.00
2018-07-03T02:59:57.876Z,99963.00
2018-07-03T03:02:28.054Z,99963.00
2018-07-03T03:04:58.171Z,99967.00
2018-07-03T03:07:28.753Z,99961.00
2018-07-03T03:09:58.921Z,99962.00
2018-07-03T03:12:29.049Z,99962.00
2018-07-03T03:15:14.512Z,99963.00
2018-07-03T03:17:45.868Z,99960.00
2018-07-03T03:20:44.816Z,99965.00
2018-07-03T03:23:16.104Z,99970.00
2018-07-03T03:29:21.627Z,99970.00
2018-07-03T03:31:51.997Z,99967.00
2018-07-03T03:34:22.126Z,99972.00
2018-07-03T03:36:52.609Z,99969.00
2018-07-03T03:39:22.819Z,99973.00
2018-07-03T03:41:53.116Z,99977.00
2018-07-03T03:44:23.569Z,99980.00
2018-07-03T03:47:13.693Z,99989.00
2018-07-03T03:50:07.060Z,99990.00
2018-07-03T03:52:37.392Z,99986.00
2018-07-03T03:55:16.184Z,99982.00
2018-07-03T03:57:46.368Z,99983.00
2018-07-03T04:00:16.726Z,99988.00
2018-07-03T04:02:47.323Z,99982.00
2018-07-03T04:08:04.234Z,99993.00
2018-07-03T04:10:34.784Z,99991.00
2018-07-03T04:13:11.254Z,99998.00
2018-07-03T04:15:41.516Z,100005.00
2018-07-03T04:18:11.707Z,100001.00
2018-07-03T04:20:42.140Z,100002.00
2018-07-03T04:25:55.166Z,100008.00
2018-07-03T04:28:25.616Z,100012.00
2018-07-03T04:30:55.873Z,99999.00
2018-07-03T04:33:26.356Z,100009.00
2018-07-03T04:35:56.607Z,100010.00
2018-07-03T04:41:36.717Z,100011.00
2018-07-03T04:44:06.845Z,100011.00
2018-07-03T04:46:44.228Z,100011.00
2018-07-03T04:49:32.633Z,100015.00
2018-07-03T04:52:22.087Z,100010.00
2018-07-03T04:55:10.370Z,100001.00
2018-07-03T04:57:40.623Z,99992.00
2018-07-03T05:00:10.861Z,99990.00
2018-07-03T05:02:41.051Z,99988.00
2018-07-03T05:05:11.308Z,99994.00
2018-07-03T05:07:41.501Z,99992.00
2018-07-03T05:19:31.492Z,99986.00
2018-07-03T05:22:24.775Z,99986.00
2018-07-03T05:24:55.259Z,99988.00
2018-07-03T05:27:25.855Z,99989.00
2018-07-03T05:29:56.527Z,99985.00
2018-07-03T05:32:54.281Z,99988.00
2018-07-03T05:46:11.756Z,99999.00
2018-07-03T05:48:53.412Z,100003.00
2018-07-03T05:51:23.744Z,100001.00
2018-07-03T05:53:54.036Z,100000.00
2018-07-03T05:56:28.436Z,99999.00
2018-07-03T05:58:58.886Z,99996.00
2018-07-03T06:01:29.524Z,99999.00
2018-07-03T06:03:59.816Z,100007.00
2018-07-03T06:06:30.058Z,100011.00
2018-07-03T06:09:00.285Z,100011.00
2018-07-03T06:11:30.607Z,100005.00
2018-07-03T06:14:00.973Z,100001.00
2018-07-03T06:16:31.312Z,100004.00
2018-07-03T06:19:01.928Z,100005.00
2018-07-03T06:21:32.593Z,100006.00
2018-07-03T06:24:03.005Z,100007.00
2018-07-03T06:26:36.457Z,100009.00
2018-07-03T06:29:08.331Z,100000.00
2018-07-03T06:31:39.471Z,100003.00
2018-07-03T06:34:11.182Z,100006.00
2018-07-03T06:36:41.483Z,100006.00
2018-07-03T06:39:29.608Z,100008.00
2018-07-03T06:42:07.388Z,100010.00
2018-07-03T06:44:44.333Z,100007.00
2018-07-03T06:47:15.398Z,100017.00
2018-07-03T06:58:41.346Z,100011.00
2018-07-03T07:07:36.519Z,100014.00
2018-07-03T07:10:08.690Z,100011.00
2018-07-03T07:12:41.796Z,100009.00
2018-07-03T07:15:23.753Z,100008.00
2018-07-03T07:17:54.339Z,100007.00
2018-07-03T07:20:24.814Z,100011.00
2018-07-03T07:22:55.060Z,100017.00
2018-07-03T07:25:25.425Z,100011.00
2018-07-03T07:27:55.705Z,100012.00
2018-07-03T07:30:26.009Z,100015.00
2018-07-03T07:32:56.358Z,100012.00
2018-07-03T07:35:26.882Z,100011.00
2018-07-03T07:37:57.963Z,100009.00
2018-07-03T07:40:34.190Z,100007.00
2018-07-03T07:53:00.108Z,100011.00
2018-07-03T07:55:37.569Z,100012.00
2018-07-03T07:58:07.859Z,100012.00
2018-07-03T08:00:38.903Z,100012.00
2018-07-03T08:03:09.175Z,100009.00
2018-07-03T08:05:40.472Z,100009.00
2018-07-03T08:08:10.780Z,100010.00
2018-07-03T08:10:41.032Z,100004.00
2018-07-03T08:13:11.376Z,100007.00
2018-07-03T08:15:53.171Z,100011.00
2018-07-03T08:18:30.244Z,100007.00
2018-07-03T08:30:24.481Z,100009.00
2018-07-03T08:39:40.458Z,100017.00
2018-07-03T08:42:11.658Z,100023.00
2018-07-03T08:44:48.865Z,100020.00
2018-07-03T08:47:47.311Z,100022.00
2018-07-03T08:50:47.976Z,100019.00
2018-07-03T08:56:47.916Z,100024.00
2018-07-03T08:59:24.324Z,100020.00
2018-07-03T09:08:41.761Z,100019.00
2018-07-03T09:18:20.288Z,100010.00
2018-07-03T09:33:25.418Z,100007.00
2018-07-03T09:35:58.881Z,100003.00
2018-07-03T09:38:55.834Z,99996.00
2018-07-03T09:46:56.846Z,99999.00
2018-07-03T09:49:28.227Z,100009.00
2018-07-03T09:58:03.799Z,100005.00
2018-07-03T10:00:51.693Z,99998.00
2018-07-03T10:12:54.167Z,100008.00
2018-07-03T10:31:53.913Z,100000.00
2018-07-03T10:34:24.189Z,99997.00
2018-07-03T10:56:00.017Z,99993.00
2018-07-03T11:01:34.575Z,99984.00
2018-07-03T11:04:24.041Z,99980.00
2018-07-03T11:06:54.397Z,99985.00
2018-07-03T11:09:24.737Z,99982.00
2018-07-03T11:11:56.021Z,99982.00
2018-07-03T11:14:28.541Z,99980.00
2018-07-03T11:16:58.899Z,99975.00
2018-07-03T11:19:42.492Z,99969.00
2018-07-03T11:22:13.317Z,99974.00
2018-07-03T11:24:43.670Z,99975.00
2018-07-03T12:11:07.944Z,99948.00
2018-07-03T12:13:38.188Z,99944.00
2018-07-03T12:16:08.423Z,99948.00
